Time;durP1;ratioP1;P1;durP2;ratioP2;P2;SDS_P1;SDS_P2;PMS_P1;PMS_P2;Temp;Humidity;BMP_temperature;BMP_pressure;BME280_temperature;BME280_humidity;BME280_pressure;Samples;Min_cycle;Max_cycle;Signal;HPM_P1;HPM_P2
2022/06/20 00:02:17;;;;;;;6.28;2.00;;;14.70;99.90;;;;;;4824817;29;20062;-60
2022/06/20 00:04:43;;;;;;;8.50;2.45;;;14.70;99.90;;;;;;4808453;29;20573;-59
2022/06/20 00:07:11;;;;;;;8.45;2.47;;;14.60;99.90;;;;;;4824514;29;20126;-60
2022/06/20 00:09:37;;;;;;;7.38;2.30;;;14.60;99.90;;;;;;4808561;29;20057;-61
2022/06/20 00:12:04;;;;;;;6.90;2.08;;;14.60;99.90;;;;;;4824794;29;20050;-62
2022/06/20 00:14:30;;;;;;;7.90;1.98;;;14.60;99.90;;;;;;4824426;29;20058;-59
2022/06/20 00:16:55;;;;;;;7.05;2.00;;;14.60;99.90;;;;;;4824713;29;20046;-59
2022/06/20 00:19:21;;;;;;;5.38;1.88;;;14.60;99.90;;;;;;4808414;29;20049;-61
2022/06/20 00:21:47;;;;;;;8.80;2.20;;;14.60;99.90;;;;;;4824322;29;20094;-60
2022/06/20 00:24:13;;;;;;;8.32;2.20;;;14.50;99.90;;;;;;4824599;29;20478;-60
2022/06/20 00:26:39;;;;;;;5.22;1.73;;;14.50;99.90;;;;;;4823978;29;20160;-67
2022/06/20 00:29:07;;;;;;;5.32;2.00;;;14.50;99.90;;;;;;4824169;29;20413;-60
2022/06/20 00:31:34;;;;;;;5.90;1.90;;;14.50;99.90;;;;;;4808169;29;20056;-62
2022/06/20 00:34:00;;;;;;;6.80;1.98;;;14.50;99.90;;;;;;4824104;29;20450;-59
2022/06/20 00:36:27;;;;;;;6.03;1.83;;;14.50;99.90;;;;;;4824735;29;20125;-59
2022/06/20 00:38:55;;;;;;;5.28;2.00;;;14.50;99.90;;;;;;4824323;29;20105;-62
2022/06/20 00:41:25;;;;;;;7.63;2.17;;;14.50;99.90;;;;;;4808144;29;20497;-60
2022/06/20 00:43:53;;;;;;;5.57;1.90;;;14.40;99.90;;;;;;4807825;29;20089;-59
2022/06/20 00:46:37;;;;;;;5.80;1.80;;;14.40;99.90;;;;;;4823966;29;20508;-59
2022/06/20 00:49:14;;;;;;;6.93;1.88;;;14.40;99.90;;;;;;4807961;29;20140;-60
2022/06/20 00:51:50;;;;;;;7.45;2.22;;;14.40;99.90;;;;;;4823980;29;20061;-60
2022/06/20 00:54:22;;;;;;;8.75;1.92;;;14.40;99.90;;;;;;4792969;29;20453;-61
2022/06/20 00:56:53;;;;;;;4.00;1.83;;;14.40;99.90;;;;;;4823562;29;20505;-62
2022/06/20 00:59:31;;;;;;;9.45;2.10;;;14.30;99.90;;;;;;4824143;29;20062;-60
2022/06/20 01:01:59;;;;;;;7.18;1.77;;;14.30;99.90;;;;;;4822898;29;20053;-61
2022/06/20 01:04:38;;;;;;;11.23;1.80;;;14.30;99.90;;;;;;4823992;29;20062;-61
2022/06/20 01:07:10;;;;;;;10.25;2.35;;;14.30;99.90;;;;;;4823950;29;20114;-60
2022/06/20 01:09:40;;;;;;;5.38;1.80;;;14.30;99.90;;;;;;4823683;29;20057;-59
2022/06/20 01:12:13;;;;;;;6.90;2.08;;;14.20;99.90;;;;;;4823762;29;20409;-60
2022/06/20 01:14:39;;;;;;;7.60;2.13;;;14.20;99.90;;;;;;4823690;29;20124;-62
2022/06/20 01:17:18;;;;;;;6.38;2.03;;;14.10;99.90;;;;;;4823619;29;20050;-60
2022/06/20 01:20:01;;;;;;;5.90;2.20;;;14.10;99.90;;;;;;4807334;29;20066;-61
2022/06/20 01:22:36;;;;;;;5.05;1.90;;;14.00;99.90;;;;;;4807580;29;20065;-59
2022/06/20 01:25:28;;;;;;;4.85;2.00;;;14.00;99.90;;;;;;4823726;29;20154;-60
2022/06/20 01:27:55;;;;;;;7.60;2.13;;;13.90;99.90;;;;;;4823372;29;20187;-61
2022/06/20 01:30:26;;;;;;;8.75;1.80;;;13.90;99.90;;;;;;4807293;29;20509;-59
2022/06/20 01:32:52;;;;;;;5.63;2.00;;;13.80;99.90;;;;;;4807053;29;20413;-60
2022/06/20 01:38:08;;;;;;;6.55;2.30;;;13.80;99.90;;;;;;4823569;29;20050;-61
2022/06/20 01:40:35;;;;;;;6.55;2.35;;;13.70;99.90;;;;;;4807086;29;20100;-60
2022/06/20 01:43:02;;;;;;;10.07;1.80;;;13.70;99.90;;;;;;4806834;29;20408;-59
2022/06/20 01:48:21;;;;;;;5.55;2.05;;;13.60;99.90;;;;;;4823357;29;20058;-60
2022/06/20 01:50:47;;;;;;;;;;;13.60;99.90;;;;;;4823455;29;20060;-60
2022/06/20 01:53:26;;;;;;;5.80;2.10;;;13.60;99.90;;;;;;4823298;29;20328;-60
2022/06/20 01:55:55;;;;;;;7.22;2.10;;;13.50;99.90;;;;;;4823000;29;20496;-60
2022/06/20 01:58:36;;;;;;;6.03;1.90;;;13.40;99.90;;;;;;4823078;29;20061;-65
2022/06/20 02:01:03;;;;;;;8.20;2.40;;;13.40;99.90;;;;;;4823007;29;20058;-59
2022/06/20 02:03:33;;;;;;;8.90;2.30;;;13.40;99.90;;;;;;4823145;29;20420;-60
2022/06/20 02:06:01;;;;;;;7.85;2.33;;;13.40;99.90;;;;;;4822885;29;20137;-59
2022/06/20 02:08:27;;;;;;;6.10;2.00;;;13.40;99.90;;;;;;4823037;29;20050;-60
2022/06/20 02:11:22;;;;;;;5.85;2.22;;;13.40;99.90;;;;;;4791516;29;20058;-59
2022/06/20 02:13:52;;;;;;;6.50;1.95;;;13.40;99.90;;;;;;4822849;29;20058;-59
2022/06/20 02:16:20;;;;;;;7.88;2.53;;;13.40;99.90;;;;;;4806785;29;20086;-60
2022/06/20 02:18:49;;;;;;;7.13;2.22;;;13.40;99.90;;;;;;4822701;29;20050;-61
2022/06/20 02:21:23;;;;;;;5.28;1.85;;;13.50;99.90;;;;;;4806669;29;20062;-61
2022/06/20 02:24:06;;;;;;;7.85;2.38;;;13.50;99.90;;;;;;4821671;29;20080;-58
2022/06/20 02:26:35;;;;;;;4.57;1.90;;;13.50;99.90;;;;;;4823022;29;20083;-59
2022/06/20 02:29:21;;;;;;;9.27;2.38;;;13.50;99.90;;;;;;4806169;29;20466;-61
2022/06/20 02:31:59;;;;;;;6.32;2.03;;;13.50;99.90;;;;;;4808273;29;20088;-60
2022/06/20 02:34:26;;;;;;;5.82;1.88;;;13.60;99.90;;;;;;4806576;29;20066;-60
2022/06/20 02:36:54;;;;;;;5.78;1.95;;;13.60;99.90;;;;;;4822357;29;20086;-59
2022/06/20 02:39:20;;;;;;;5.50;2.13;;;13.60;99.90;;;;;;4822923;29;20455;-59
2022/06/20 02:41:53;;;;;;;4.70;1.80;;;13.60;99.90;;;;;;4822504;29;20390;-60
2022/06/20 02:44:23;;;;;;;11.38;1.90;;;13.60;99.90;;;;;;4822834;29;20050;-60
2022/06/20 02:46:51;;;;;;;8.25;2.13;;;13.60;99.90;;;;;;4822412;29;20046;-60
2022/06/20 02:49:21;;;;;;;6.57;2.10;;;13.50;99.90;;;;;;4806085;29;20493;-60
2022/06/20 02:51:52;;;;;;;7.03;2.10;;;13.50;99.90;;;;;;4822030;29;20102;-62
2022/06/20 02:54:21;;;;;;;6.00;1.90;;;13.40;99.90;;;;;;4822681;29;20062;-62
2022/06/20 02:56:54;;;;;;;5.07;2.00;;;13.30;99.90;;;;;;4822313;29;20058;-67
2022/06/20 02:59:37;;;;;;;9.23;2.55;;;13.30;99.90;;;;;;4822578;29;20050;-60
2022/06/20 03:02:08;;;;;;;7.63;2.33;;;13.20;99.90;;;;;;4806137;29;20054;-61
2022/06/20 03:04:39;;;;;;;5.32;1.95;;;13.20;99.90;;;;;;4806314;29;20081;-60
2022/06/20 03:07:11;;;;;;;6.13;2.00;;;13.20;99.90;;;;;;4791035;29;20054;-60
2022/06/20 03:09:40;;;;;;;7.72;2.53;;;13.20;99.90;;;;;;4806074;29;20057;-60
2022/06/20 03:12:08;;;;;;;7.47;2.38;;;13.10;99.90;;;;;;4821787;29;20054;-60
2022/06/20 03:14:38;;;;;;;7.22;2.13;;;13.10;99.90;;;;;;4822294;29;20050;-60
2022/06/20 03:17:06;;;;;;;7.70;2.20;;;13.10;99.90;;;;;;4805876;29;20104;-60
2022/06/20 03:19:35;;;;;;;12.10;2.70;;;13.10;99.90;;;;;;4822349;29;20050;-60
2022/06/20 03:22:05;;;;;;;8.52;2.28;;;13.10;99.90;;;;;;4821935;29;20107;-60
2022/06/20 03:24:32;;;;;;;6.55;2.60;;;13.10;99.90;;;;;;4822331;29;20066;-59
2022/06/20 03:27:01;;;;;;;8.18;2.70;;;13.00;99.90;;;;;;4805579;29;20257;-59
2022/06/20 03:29:27;;;;;;;9.07;2.67;;;13.00;99.90;;;;;;4805989;29;20054;-59
2022/06/20 03:31:53;;;;;;;9.60;2.50;;;12.90;99.90;;;;;;4822090;29;20500;-59
2022/06/20 03:34:21;;;;;;;6.93;2.50;;;13.00;99.90;;;;;;4805894;29;20058;-59
2022/06/20 03:36:48;;;;;;;6.70;2.55;;;13.00;99.90;;;;;;4824336;29;20406;-59
2022/06/20 03:39:17;;;;;;;4.72;2.10;;;13.00;99.90;;;;;;4824953;29;20046;-60
2022/06/20 03:41:43;;;;;;;7.03;2.65;;;13.00;99.90;;;;;;4825435;29;20054;-60
2022/06/20 03:44:28;;;;;;;7.53;2.78;;;12.90;99.90;;;;;;4824923;29;20052;-61
2022/06/20 03:47:04;;;;;;;8.43;3.47;;;13.00;99.90;;;;;;4824507;29;20524;-61
2022/06/20 03:49:53;;;;;;;8.50;2.95;;;13.00;99.90;;;;;;4825131;29;20095;-60
2022/06/20 03:52:27;;;;;;;8.48;2.72;;;13.10;99.90;;;;;;4825095;29;20050;-63
2022/06/20 03:55:05;;;;;;;8.18;2.83;;;13.10;99.90;;;;;;4824873;29;20485;-60
2022/06/20 03:57:40;;;;;;;7.68;2.88;;;13.10;99.90;;;;;;4825347;29;20405;-61
2022/06/20 04:00:11;;;;;;;8.90;3.15;;;13.10;99.90;;;;;;4808390;29;20054;-60
2022/06/20 04:03:18;;;;;;;8.50;2.60;;;13.20;99.90;;;;;;4824791;29;20125;-60
2022/06/20 04:06:10;;;;;;;9.55;3.08;;;13.20;99.90;;;;;;4750576;30;20434;-59
2022/06/20 04:11:44;;;;;;;7.40;2.55;;;13.20;99.90;;;;;;4824590;29;20062;-61
2022/06/20 04:14:40;;;;;;;8.10;2.67;;;13.30;99.90;;;;;;4824349;29;20050;-60
2022/06/20 04:20:05;;;;;;;9.55;2.90;;;13.30;99.90;;;;;;4824159;29;20073;-60
2022/06/20 04:22:37;;;;;;;9.38;3.30;;;13.30;99.90;;;;;;4808405;29;20086;-60
2022/06/20 04:25:09;;;;;;;11.30;3.35;;;13.30;99.90;;;;;;4824173;29;20490;-59
2022/06/20 04:27:45;;;;;;;11.10;3.03;;;13.30;99.90;;;;;;4808074;29;20452;-60
2022/06/20 04:30:29;;;;;;;10.52;3.33;;;13.30;99.90;;;;;;4807915;29;20524;-59
2022/06/20 04:33:01;;;;;;;10.52;3.20;;;13.40;99.90;;;;;;4808168;29;20500;-62
2022/06/20 04:35:32;;;;;;;9.15;2.90;;;13.40;99.90;;;;;;4824425;29;20054;-60
2022/06/20 04:38:18;;;;;;;6.88;2.75;;;13.50;99.90;;;;;;4824472;29;20047;-60
2022/06/20 04:40:51;;;;;;;9.73;3.40;;;13.60;99.90;;;;;;4824559;29;20082;-59
2022/06/20 04:43:29;;;;;;;8.00;3.37;;;13.70;99.90;;;;;;4824199;29;20050;-60
2022/06/20 04:46:09;;;;;;;10.30;2.97;;;13.90;99.90;;;;;;4823905;29;20417;-61
2022/06/20 04:48:35;;;;;;;9.40;2.78;;;14.10;99.90;;;;;;4824223;29;20065;-60
2022/06/20 04:51:05;;;;;;;9.98;2.80;;;14.20;99.90;;;;;;4824117;29;20050;-62
2022/06/20 04:53:35;;;;;;;9.65;3.10;;;14.20;99.90;;;;;;4807897;29;20058;-61
2022/06/20 04:56:05;;;;;;;9.30;3.05;;;14.20;99.90;;;;;;4824149;29;20410;-59
2022/06/20 04:58:43;;;;;;;12.23;3.05;;;14.40;99.90;;;;;;4824182;29;20046;-60
2022/06/20 05:01:09;;;;;;;10.50;3.20;;;14.60;99.90;;;;;;4823612;29;20118;-61
2022/06/20 05:03:43;;;;;;;8.00;3.08;;;15.30;99.90;;;;;;4823971;29;20050;-61
2022/06/20 05:06:21;;;;;;;9.55;2.88;;;16.30;99.90;;;;;;4823641;29;20175;-60
2022/06/20 05:08:49;;;;;;;8.13;3.03;;;;;;;;;;4823948;29;20079;-60
2022/06/20 05:11:33;;;;;;;9.25;2.88;;;17.30;99.90;;;;;;4823557;29;20054;-60
2022/06/20 05:14:04;;;;;;;7.95;2.92;;;19.20;99.90;;;;;;4807514;29;20486;-61
2022/06/20 05:16:34;;;;;;;5.90;2.30;;;20.10;99.90;;;;;;4823840;29;20050;-59
2022/06/20 05:19:06;;;;;;;9.15;2.80;;;20.80;99.90;;;;;;4823420;29;20647;-59
2022/06/20 05:21:38;;;;;;;8.88;2.60;;;21.60;98.10;;;;;;4823535;29;20057;-60
2022/06/20 05:24:14;;;;;;;11.57;2.97;;;22.30;97.00;;;;;;4823632;29;20066;-61
2022/06/20 05:26:43;;;;;;;6.43;2.40;;;22.80;96.10;;;;;;4823236;29;20622;-61
2022/06/20 05:29:15;;;;;;;5.55;2.50;;;23.40;96.20;;;;;;4806517;29;20052;-59
2022/06/20 05:31:52;;;;;;;6.50;2.20;;;23.60;93.90;;;;;;4823498;29;20111;-62
2022/06/20 05:34:30;;;;;;;8.20;2.83;;;23.60;93.50;;;;;;4823389;29;20054;-61
2022/06/20 05:37:34;;;;;;;7.25;2.90;;;23.50;93.30;;;;;;4823503;29;20051;-62
2022/06/20 05:40:06;;;;;;;7.03;2.55;;;23.30;93.40;;;;;;4806914;29;20065;-60
2022/06/20 05:42:32;;;;;;;5.80;2.45;;;22.60;94.10;;;;;;4823117;29;20054;-62
2022/06/20 05:44:58;;;;;;;5.95;2.40;;;21.80;95.00;;;;;;4823728;29;20050;-60
2022/06/20 05:47:28;;;;;;;7.80;2.90;;;21.10;96.20;;;;;;4822828;29;20446;-60
2022/06/20 05:50:18;;;;;;;7.90;2.65;;;20.80;97.10;;;;;;4823168;29;20069;-60
2022/06/20 05:52:45;;;;;;;9.38;3.10;;;21.10;96.80;;;;;;4823411;29;20465;-61
2022/06/20 05:55:13;;;;;;;7.93;2.88;;;21.80;96.10;;;;;;4822948;29;20107;-63
2022/06/20 05:57:40;;;;;;;7.18;3.00;;;22.50;95.00;;;;;;4822897;29;20069;-61
2022/06/20 06:00:17;;;;;;;8.13;2.58;;;23.20;94.40;;;;;;4791668;29;20059;-61
2022/06/20 06:02:47;;;;;;;7.70;2.70;;;23.50;93.70;;;;;;4823147;29;20054;-62
2022/06/20 06:05:28;;;;;;;8.15;2.70;;;23.90;93.50;;;;;;4822938;29;20054;-62
2022/06/20 06:08:09;;;;;;;7.63;2.60;;;24.10;92.80;;;;;;4806784;29;20112;-61
2022/06/20 06:10:57;;;;;;;8.32;2.80;;;24.20;92.60;;;;;;4822612;29;20153;-61
2022/06/20 06:13:50;;;;;;;8.00;2.72;;;24.50;92.80;;;;;;4822836;29;20050;-62
2022/06/20 06:19:11;;;;;;;8.93;2.35;;;24.00;92.80;;;;;;4823321;29;20058;-62
2022/06/20 06:21:37;;;;;;;8.98;2.80;;;23.70;92.60;;;;;;4822510;29;20560;-60
2022/06/20 06:24:06;;;;;;;8.98;2.60;;;24.20;92.60;;;;;;4822570;29;20073;-61
2022/06/20 06:26:33;;;;;;;7.88;2.40;;;24.10;92.10;;;;;;4806390;29;20066;-62
2022/06/20 06:28:59;;;;;;;12.40;3.13;;;23.70;92.50;;;;;;4806318;29;20047;-61
2022/06/20 06:31:31;;;;;;;8.70;2.67;;;23.50;92.90;;;;;;4806018;29;20050;-61
2022/06/20 06:34:00;;;;;;;6.65;2.40;;;23.90;92.20;;;;;;4822881;29;20050;-60
2022/06/20 06:36:43;;;;;;;7.80;2.58;;;23.70;91.90;;;;;;4822491;29;20054;-60
2022/06/20 06:39:14;;;;;;;5.55;2.20;;;23.00;92.10;;;;;;4822806;29;20128;-61
2022/06/20 06:41:48;;;;;;;7.10;2.65;;;22.10;92.80;;;;;;4822578;29;20137;-59
2022/06/20 06:44:24;;;;;;;;;;;21.50;93.40;;;;;;4823063;29;20066;-61
2022/06/20 06:46:53;;;;;;;6.70;2.40;;;21.10;94.10;;;;;;4822733;29;19932;-61
2022/06/20 06:49:45;;;;;;;8.52;2.65;;;21.10;93.80;;;;;;4822158;29;20424;-60
2022/06/20 06:52:29;;;;;;;8.27;2.60;;;20.80;94.30;;;;;;4822280;29;20119;-62
2022/06/20 06:55:04;;;;;;;8.93;2.88;;;20.20;95.00;;;;;;4822689;29;20412;-60
2022/06/20 06:57:40;;;;;;;8.80;3.08;;;19.80;95.70;;;;;;4822357;29;20125;-60
2022/06/20 07:00:06;;;;;;;10.50;3.00;;;19.50;96.40;;;;;;4806400;29;20077;-61
2022/06/20 07:02:47;;;;;;;9.32;3.03;;;19.30;96.70;;;;;;4821993;29;20058;-60
2022/06/20 07:05:25;;;;;;;9.52;2.80;;;19.20;96.90;;;;;;4822508;29;20046;-60
2022/06/20 07:08:21;;;;;;;9.45;2.95;;;19.10;97.30;;;;;;4822596;29;20062;-62
2022/06/20 07:10:55;;;;;;;9.05;2.63;;;18.90;97.40;;;;;;4824830;29;20489;-60
2022/06/20 07:13:26;;;;;;;9.50;2.80;;;18.80;97.10;;;;;;4809201;29;20470;-60
2022/06/20 07:15:56;;;;;;;9.10;2.65;;;19.30;97.60;;;;;;4825400;29;20517;-60
2022/06/20 07:18:43;;;;;;;7.85;2.92;;;20.30;96.60;;;;;;4825335;29;20136;-59
2022/06/20 07:21:17;;;;;;;7.53;2.83;;;20.70;95.60;;;;;;4825452;29;20451;-59
2022/06/20 07:23:45;;;;;;;;;;;20.50;95.60;;;;;;4808916;29;20059;-59
2022/06/20 07:26:13;;;;;;;5.70;2.15;;;20.30;95.70;;;;;;4825373;29;19924;-60
2022/06/20 07:29:16;;;;;;;6.90;1.88;;;20.00;95.80;;;;;;4825023;29;20054;-60
2022/06/20 07:31:47;;;;;;;9.15;2.20;;;19.70;96.50;;;;;;4797262;29;20126;-60
2022/06/20 07:34:19;;;;;;;8.85;2.60;;;19.50;97.10;;;;;;4825280;29;20050;-60
2022/06/20 07:36:50;;;;;;;7.22;2.30;;;20.00;97.50;;;;;;4808640;29;20505;-61
2022/06/20 07:39:29;;;;;;;7.53;2.70;;;20.60;96.40;;;;;;4825302;29;20050;-61
2022/06/20 07:42:08;;;;;;;7.65;2.22;;;20.80;95.60;;;;;;4825163;29;20062;-63
2022/06/20 07:44:53;;;;;;;7.70;2.20;;;20.20;95.80;;;;;;4824735;29;20054;-61
2022/06/20 07:48:02;;;;;;;7.00;2.30;;;20.90;96.60;;;;;;4808897;29;20051;-61
2022/06/20 07:50:37;;;;;;;7.20;2.33;;;20.90;95.00;;;;;;4808641;29;20062;-61
2022/06/20 07:53:32;;;;;;;6.35;1.83;;;20.60;95.30;;;;;;4825089;29;20378;-60
2022/06/20 07:56:03;;;;;;;6.25;2.17;;;21.20;95.40;;;;;;4808522;29;20062;-61
2022/06/20 07:58:33;;;;;;;4.93;1.73;;;22.10;93.50;;;;;;4793442;29;20112;-61
2022/06/20 08:01:04;;;;;;;4.30;1.75;;;22.90;92.80;;;;;;4824745;29;20047;-61
2022/06/20 08:03:38;;;;;;;5.28;1.80;;;23.40;91.90;;;;;;4824572;29;20054;-60
2022/06/20 08:06:15;;;;;;;5.82;1.75;;;24.20;91.20;;;;;;4824537;29;20457;-60
2022/06/20 08:08:47;;;;;;;4.60;1.50;;;24.90;90.70;;;;;;4824559;29;20072;-60
2022/06/20 08:11:41;;;;;;;5.50;1.70;;;25.30;88.40;;;;;;4824522;29;20489;-61
2022/06/20 08:14:39;;;;;;;9.35;1.70;;;24.70;89.00;;;;;;4824773;29;20065;-61
2022/06/20 08:17:08;;;;;;;5.28;1.77;;;24.60;90.50;;;;;;4823664;29;20062;-61
2022/06/20 08:19:37;;;;;;;3.33;1.40;;;25.00;89.20;;;;;;4823623;29;20072;-61
2022/06/20 08:22:19;;;;;;;7.10;1.67;;;25.50;88.10;;;;;;4823739;29;20066;-62
2022/06/20 08:24:54;;;;;;;5.40;1.83;;;25.00;88.10;;;;;;4823480;29;20142;-61
2022/06/20 08:27:33;;;;;;;6.25;1.75;;;24.40;89.50;;;;;;4824191;29;20055;-61
2022/06/20 08:30:16;;;;;;;6.03;1.83;;;24.80;89.20;;;;;;4824508;29;20485;-61
2022/06/20 08:33:05;;;;;;;5.87;2.10;;;24.00;89.80;;;;;;4823274;29;20401;-62
2022/06/20 08:35:45;;;;;;;5.35;2.20;;;23.40;90.10;;;;;;4824215;29;20413;-72
2022/06/20 08:38:30;;;;;;;5.32;1.75;;;23.20;90.90;;;;;;4824268;29;20401;-60
2022/06/20 08:41:29;;;;;;;5.35;1.63;;;23.90;90.10;;;;;;4824083;29;20070;-60
2022/06/20 08:44:06;;;;;;;3.95;1.60;;;24.70;90.10;;;;;;4823916;29;20404;-61
2022/06/20 08:46:50;;;;;;;6.65;1.80;;;25.20;90.10;;;;;;4824016;29;20046;-70
2022/06/20 08:49:47;;;;;;;4.68;1.80;;;25.00;88.90;;;;;;4824198;29;20195;-62
2022/06/20 08:52:38;;;;;;;4.60;1.83;;;24.00;90.40;;;;;;4760031;29;20085;-60
2022/06/20 08:55:14;;;;;;;4.68;1.55;;;23.10;90.50;;;;;;4824013;29;20056;-60
2022/06/20 08:58:01;;;;;;;4.43;1.73;;;22.50;90.50;;;;;;4807121;29;20087;-59
2022/06/20 09:01:15;;;;;;;5.57;1.77;;;22.90;91.10;;;;;;4807719;29;20046;-62
2022/06/20 09:04:03;;;;;;;6.00;1.38;;;23.40;90.70;;;;;;4749192;30;20052;-61
2022/06/20 09:06:45;;;;;;;6.05;1.60;;;24.10;89.90;;;;;;4818803;29;20417;-62
2022/06/20 09:09:32;;;;;;;5.78;1.83;;;24.10;87.90;;;;;;4823627;29;20094;-60
2022/06/20 09:12:46;;;;;;;4.50;1.60;;;23.80;89.10;;;;;;4823794;29;20047;-60
2022/06/20 09:15:52;;;;;;;4.93;1.30;;;23.90;88.70;;;;;;4807597;29;20054;-59
2022/06/20 09:18:36;;;;;;;3.78;1.35;;;24.20;88.00;;;;;;4758044;29;20056;-60
2022/06/20 09:21:14;;;;;;;3.58;1.17;;;25.00;87.00;;;;;;4823541;29;20050;-61
2022/06/20 09:24:03;;;;;;;3.10;1.55;;;25.20;86.40;;;;;;4823045;29;20111;-58
2022/06/20 09:26:54;;;;;;;4.35;1.73;;;24.70;86.10;;;;;;4823430;29;20068;-62
2022/06/20 09:29:35;;;;;;;5.35;1.40;;;24.90;85.90;;;;;;4823324;29;20047;-60
2022/06/20 09:32:54;;;;;;;4.20;1.48;;;24.80;86.10;;;;;;4822986;29;20099;-60
2022/06/20 09:35:38;;;;;;;4.93;1.50;;;24.10;85.60;;;;;;4734248;30;20056;-60
2022/06/20 09:38:21;;;;;;;5.70;1.70;;;23.90;87.00;;;;;;4749241;30;20048;-61
2022/06/20 09:40:59;;;;;;;5.85;2.03;;;24.10;87.00;;;;;;4783972;29;20101;-63
2022/06/20 09:43:35;;;;;;;4.82;1.73;;;24.10;87.40;;;;;;4807170;29;20098;-61
2022/06/20 09:46:21;;;;;;;4.55;1.63;;;23.50;87.90;;;;;;4823154;29;20496;-60
2022/06/20 09:48:55;;;;;;;4.97;1.50;;;22.90;88.80;;;;;;4822848;29;20043;-59
2022/06/20 09:51:41;;;;;;;5.72;1.85;;;22.60;89.90;;;;;;4823166;29;20050;-61
2022/06/20 09:54:15;;;;;;;4.88;1.90;;;22.50;90.40;;;;;;4806830;29;20141;-61
2022/06/20 09:56:48;;;;;;;6.18;1.73;;;22.90;90.50;;;;;;4823075;29;20054;-69
2022/06/20 09:59:48;;;;;;;9.82;2.00;;;23.20;90.00;;;;;;4806856;29;20060;-65
2022/06/20 10:02:20;;;;;;;5.65;1.45;;;22.70;89.80;;;;;;4823174;29;20133;-61
2022/06/20 10:05:11;;;;;;;5.18;1.55;;;22.70;90.20;;;;;;4806375;29;20137;-60
2022/06/20 10:07:49;;;;;;;4.72;1.63;;;22.90;90.00;;;;;;4822948;29;20057;-60
2022/06/20 10:10:28;;;;;;;4.72;1.55;;;23.00;89.50;;;;;;4823000;29;20061;-61
2022/06/20 10:13:20;;;;;;;4.72;1.42;;;23.00;90.00;;;;;;4822724;29;20058;-60
2022/06/20 10:16:06;;;;;;;4.72;1.40;;;22.90;90.10;;;;;;4822614;29;20050;-62
2022/06/20 10:18:45;;;;;;;5.75;1.50;;;22.90;90.30;;;;;;4823104;29;20100;-62
2022/06/20 10:21:38;;;;;;;4.53;1.70;;;22.50;90.20;;;;;;4822666;29;20066;-62
2022/06/20 10:24:36;;;;;;;5.03;1.90;;;22.60;90.50;;;;;;4822316;29;20054;-63
2022/06/20 10:27:18;;;;;;;6.38;1.60;;;22.70;90.30;;;;;;4781882;29;20054;-62
2022/06/20 10:30:05;;;;;;;3.63;1.63;;;22.70;90.80;;;;;;4806659;29;20050;-61
2022/06/20 10:32:40;;;;;;;5.88;1.50;;;22.80;90.80;;;;;;4822718;29;20058;-62
2022/06/20 10:35:17;;;;;;;5.68;1.77;;;22.90;90.30;;;;;;4822319;29;20111;-62
2022/06/20 10:38:02;;;;;;;4.68;1.67;;;22.80;90.40;;;;;;4822664;29;20051;-61
2022/06/20 10:40:52;;;;;;;6.43;1.80;;;22.50;90.00;;;;;;4822504;29;20413;-61
2022/06/20 10:43:23;;;;;;;7.32;1.80;;;22.40;91.00;;;;;;4822611;29;20273;-62
2022/06/20 10:45:57;;;;;;;6.20;1.80;;;22.20;90.30;;;;;;4825293;29;20054;-68
2022/06/20 10:48:33;;;;;;;5.43;1.60;;;22.10;90.50;;;;;;4810611;29;20052;-62
2022/06/20 10:51:19;;;;;;;6.20;1.70;;;21.90;90.60;;;;;;4825560;29;20066;-61
2022/06/20 10:54:36;;;;;;;5.38;1.77;;;21.80;90.10;;;;;;4825647;29;20050;-65
2022/06/20 10:57:17;;;;;;;8.32;1.95;;;21.50;91.20;;;;;;4784862;29;20100;-60
2022/06/20 10:59:50;;;;;;;4.43;1.50;;;21.40;91.30;;;;;;4825566;29;20050;-61
2022/06/20 11:02:42;;;;;;;5.00;2.03;;;21.20;90.60;;;;;;4826179;29;20449;-62
2022/06/20 11:05:17;;;;;;;4.70;1.92;;;21.20;91.40;;;;;;4825344;29;20069;-61
2022/06/20 11:07:59;;;;;;;5.15;1.50;;;21.20;91.10;;;;;;4825852;29;20054;-62
2022/06/20 11:10:31;;;;;;;5.20;1.48;;;21.30;91.00;;;;;;4825657;29;20046;-61
2022/06/20 11:13:07;;;;;;;6.03;1.90;;;21.10;90.20;;;;;;4825286;29;20060;-63
2022/06/20 11:16:00;;;;;;;5.70;1.55;;;21.40;90.70;;;;;;4825505;29;20057;-61
2022/06/20 11:18:40;;;;;;;5.68;1.98;;;21.40;91.20;;;;;;4825749;29;20038;-61
2022/06/20 11:21:25;;;;;;;7.13;1.95;;;21.10;91.40;;;;;;4809221;29;20090;-61
2022/06/20 11:24:23;;;;;;;4.10;1.50;;;21.00;91.50;;;;;;4824673;29;20060;-62
2022/06/20 11:27:05;;;;;;;5.15;1.90;;;20.90;91.40;;;;;;4821550;29;20501;-62
2022/06/20 11:30:07;;;;;;;3.97;1.70;;;21.00;91.10;;;;;;4825444;29;20054;-60
2022/06/20 11:32:46;;;;;;;4.63;1.90;;;21.10;91.00;;;;;;4825332;29;20066;-61
2022/06/20 11:35:49;;;;;;;5.38;2.10;;;20.90;91.60;;;;;;4808844;29;20069;-61
2022/06/20 11:38:21;;;;;;;4.63;1.70;;;20.80;92.10;;;;;;4823636;29;20247;-63
2022/06/20 11:40:49;;;;;;;4.78;1.83;;;20.70;91.70;;;;;;4825068;29;20111;-60
2022/06/20 11:43:38;;;;;;;6.38;1.85;;;20.90;92.00;;;;;;4824921;29;20050;-61
2022/06/20 11:46:29;;;;;;;4.63;1.80;;;21.20;92.10;;;;;;4824310;29;20050;-64
2022/06/20 11:49:37;;;;;;;4.32;1.58;;;21.00;91.40;;;;;;4808894;29;20203;-61
2022/06/20 11:52:38;;;;;;;6.85;1.90;;;21.10;91.60;;;;;;4793900;29;20085;-61
2022/06/20 11:55:27;;;;;;;7.53;2.45;;;21.20;92.60;;;;;;4793473;29;20515;-62
2022/06/20 11:58:00;;;;;;;7.05;2.10;;;21.10;94.00;;;;;;4824935;29;20059;-61
2022/06/20 12:01:01;;;;;;;6.90;2.30;;;20.70;93.30;;;;;;4825208;29;20085;-63
2022/06/20 12:03:45;;;;;;;5.10;1.85;;;20.50;93.70;;;;;;4808683;29;20062;-62
2022/06/20 12:06:23;;;;;;;6.25;2.00;;;20.30;93.70;;;;;;4824420;29;20050;-62
2022/06/20 12:09:20;;;;;;;4.82;1.88;;;20.40;94.10;;;;;;4823790;29;20142;-61
2022/06/20 12:11:55;;;;;;;7.32;1.95;;;20.50;93.00;;;;;;4824320;29;20120;-62
2022/06/20 12:14:47;;;;;;;3.97;1.58;;;20.70;92.50;;;;;;4824811;29;20137;-61
2022/06/20 12:17:27;;;;;;;5.18;1.65;;;21.00;93.20;;;;;;4824415;29;20097;-61
2022/06/20 12:25:52;;;;;;;5.43;1.95;;;21.20;91.30;;;;;;4824728;29;20064;-60
2022/06/20 12:28:26;;;;;;;4.97;1.67;;;21.10;91.70;;;;;;4807908;29;20062;-63
2022/06/20 12:30:58;;;;;;;;;;;21.20;91.70;;;;;;4824646;29;20126;-60
2022/06/20 12:33:25;;;;;;;3.85;1.70;;;21.20;92.90;;;;;;4823969;29;19932;-61
2022/06/20 12:35:55;;;;;;;7.65;1.90;;;21.10;93.30;;;;;;4807876;29;20058;-61
2022/06/20 12:38:35;;;;;;;5.18;2.00;;;21.00;92.60;;;;;;4823489;29;20147;-61
2022/06/20 12:41:06;;;;;;;5.60;2.10;;;21.10;92.60;;;;;;4807894;29;20057;-61
2022/06/20 12:43:55;;;;;;;5.72;2.15;;;20.90;93.10;;;;;;4823409;29;20058;-62
2022/06/20 12:46:57;;;;;;;6.00;1.95;;;20.60;93.70;;;;;;4824030;29;20524;-63
2022/06/20 12:49:46;;;;;;;6.03;1.98;;;20.10;94.60;;;;;;4807580;29;20050;-61
2022/06/20 12:52:27;;;;;;;8.10;1.95;;;20.10;95.30;;;;;;4807583;29;20110;-61
2022/06/20 12:55:17;;;;;;;4.40;2.10;;;20.20;94.40;;;;;;4823801;29;20054;-61
2022/06/20 12:58:01;;;;;;;7.10;2.10;;;20.00;94.50;;;;;;4823814;29;20054;-62
2022/06/20 13:00:54;;;;;;;4.97;2.30;;;19.80;95.00;;;;;;4823360;29;20047;-66
2022/06/20 13:03:36;;;;;;;6.43;2.10;;;19.50;95.20;;;;;;4807136;29;20050;-64
2022/06/20 13:06:27;;;;;;;5.15;1.80;;;19.30;95.40;;;;;;4823531;29;20394;-61
2022/06/20 13:09:02;;;;;;;7.53;2.10;;;19.20;95.80;;;;;;4823261;29;20051;-61
2022/06/20 13:12:10;;;;;;;3.60;1.92;;;19.10;95.80;;;;;;4821941;29;20057;-64
2022/06/20 13:15:03;;;;;;;5.45;2.22;;;19.20;95.70;;;;;;4823717;29;20061;-62
2022/06/20 13:17:49;;;;;;;6.85;1.83;;;19.40;95.00;;;;;;4822408;29;20080;-61
2022/06/20 13:20:38;;;;;;;5.70;2.10;;;19.50;94.60;;;;;;4823514;29;20108;-62
2022/06/20 13:23:07;;;;;;;5.55;1.95;;;19.40;94.70;;;;;;4823630;29;20451;-61
2022/06/20 13:25:48;;;;;;;6.78;1.90;;;19.30;95.40;;;;;;4822918;29;20070;-60
2022/06/20 13:28:52;;;;;;;9.75;2.30;;;19.40;95.40;;;;;;4823215;29;20054;-60
2022/06/20 13:31:34;;;;;;;6.47;1.80;;;19.40;95.30;;;;;;4823228;29;20054;-61
2022/06/20 13:34:13;;;;;;;4.22;1.70;;;19.60;94.70;;;;;;4823603;29;20400;-61
2022/06/20 13:36:51;;;;;;;4.93;1.98;;;19.90;95.00;;;;;;4823366;29;20062;-61
2022/06/20 13:39:49;;;;;;;4.10;2.05;;;20.00;94.90;;;;;;4822924;29;20405;-61
2022/06/20 13:42:25;;;;;;;4.95;1.92;;;20.00;94.60;;;;;;4806709;29;20050;-61
2022/06/20 13:44:56;;;;;;;6.82;1.98;;;19.80;94.70;;;;;;4823476;29;20057;-61
2022/06/20 13:47:31;;;;;;;7.03;2.40;;;19.70;94.80;;;;;;4823037;29;20073;-60
2022/06/20 13:50:21;;;;;;;6.10;2.33;;;19.70;95.00;;;;;;4821719;29;20050;-61
2022/06/20 13:52:50;;;;;;;4.75;2.05;;;19.90;95.00;;;;;;4823459;29;20107;-61
2022/06/20 13:55:34;;;;;;;4.70;1.50;;;20.20;94.90;;;;;;4822985;29;20149;-60
2022/06/20 13:58:05;;;;;;;5.63;1.70;;;20.20;92.90;;;;;;4822904;29;20115;-60
2022/06/20 14:00:34;;;;;;;5.57;2.00;;;20.30;93.60;;;;;;4822447;29;20133;-61
2022/06/20 14:03:21;;;;;;;5.72;2.40;;;20.00;94.30;;;;;;4823327;29;20141;-61
2022/06/20 14:05:48;;;;;;;5.13;1.95;;;20.10;94.20;;;;;;4806663;29;20058;-63